Centennial, WY

8:04 PM MST on March 04, 2015 (GMT -0700)
Aspen Country | Change Station
CLOSE
Current Station
Personal Weather Station
Location: Centennial, WY
Elevation: 8050 ft
Nearby Weather Stations

Elev 8050 ft 41.29 °N, 106.15 °W | Updated 4 minutes ago

Clear
Clear
8.4 °F
Feels Like -1 °F
N
5.0
Wind Variable Wind from North
Gusts 5.0 mph

Today
High -- | Low -- °F
--% Chance of Precip.
Yesterday
High -- | Low -- °F
Precip. -- in
6:34 AM 5:58 PM
Full, 100% visible
Pressure 30.42 in
Visibility 10.0 miles
Clouds Clear
Windchill -1 °F
Dew Point -6 °F
Humidity 52%
Rainfall 0.00 in
Snow Depth Not available.
UV 0 out of 12
Pollen .60 out of 12
Air Quality Not available.
Flu Activity Not available.
METAR KLAR 050153Z AUTO 23003KT 10SM CLR M16/M22 A3005 RMK AO2 SLP299 T11611217

More Conditions Fewer Conditions

Pressure 30.42 in
Visibility 10.0 miles
Clouds Clear
Windchill -1 °F
Dew Point -6 °F
Humidity 52%
Rainfall 0.00 in
Snow Depth Not available.
UV 0 out of 12
Pollen .60 out of 12
Air Quality Not available.
Flu Activity Not available.
METAR KLAR 050153Z AUTO 23003KT 10SM CLR M16/M22 A3005 RMK AO2 SLP299 T11611217

More Conditions Fewer Conditions

10-Day Weather Forecast

Almanac

Astronomy

Mar. 04, 2015 Rise Set
Actual Time
Civil Twilight
Nautical Twilight
Astronomical Twilight
Moon
Length of Visible Light
Length of Day
Tomorrow will be .
, % of the Moon is Illuminated

Today's Extremes

State Highs State Lows

Community

WunderPhotos

Upload Photos

1,802,641 photos uploaded!

WunderBlogs® & News

Nearby

Air Quality

  Air Quality AQ Index Pollutant
Not available.

Snow Depth

Station Depth Elevation

Earthquake Activity

City Distance Mag. Time & Date
Minimum magnitude displayed is 2.5.

Coastal Water Temperatures

Place Temperature

Nearby Weather Stations